Time;durP1;ratioP1;P1;durP2;ratioP2;P2;SDS_P1;SDS_P2;PMS_P1;PMS_P2;Temp;Humidity;BMP_temperature;BMP_pressure;BME280_temperature;BME280_humidity;BME280_pressure;Samples;Min_cycle;Max_cycle;Signal;HPM_P1;HPM_P2
2022/08/25 00:00:09;;;;;;;5.20;4.57;;;24.20;99.90;;;;;;4984064;28;20258;-52
2022/08/25 00:02:36;;;;;;;6.50;4.60;;;24.20;99.90;;;;;;4975683;28;20371;-52
2022/08/25 00:05:04;;;;;;;7.40;4.47;;;24.10;99.90;;;;;;4968398;28;20220;-50
2022/08/25 00:07:32;;;;;;;4.87;4.07;;;24.00;99.90;;;;;;4983744;28;20198;-52
2022/08/25 00:09:59;;;;;;;5.83;4.03;;;23.90;99.90;;;;;;4984821;28;20212;-53
2022/08/25 00:12:26;;;;;;;5.47;4.70;;;24.00;99.90;;;;;;4987042;28;20227;-52
2022/08/25 00:14:53;;;;;;;5.17;4.67;;;23.90;99.90;;;;;;4979699;28;20299;-51
2022/08/25 00:17:20;;;;;;;6.90;4.77;;;23.90;99.90;;;;;;4989449;28;20841;-51
2022/08/25 00:19:47;;;;;;;5.60;4.23;;;23.80;99.90;;;;;;4977197;28;20878;-53
2022/08/25 00:22:14;;;;;;;6.23;4.47;;;23.90;99.90;;;;;;4977923;28;20302;-52
2022/08/25 00:24:41;;;;;;;6.80;4.27;;;23.80;99.90;;;;;;4979106;28;20322;-52
2022/08/25 00:27:11;;;;;;;5.10;4.70;;;23.90;99.90;;;;;;4989957;28;20295;-52
2022/08/25 00:29:38;;;;;;;5.07;4.67;;;23.90;99.90;;;;;;4990170;28;20248;-52
2022/08/25 00:32:05;;;;;;;5.93;4.90;;;23.80;99.90;;;;;;4983297;28;20207;-53
2022/08/25 00:34:35;;;;;;;4.80;4.40;;;23.90;99.90;;;;;;4970198;28;20375;-52
2022/08/25 00:37:05;;;;;;;5.00;4.27;;;23.80;99.90;;;;;;4985999;28;20204;-52
2022/08/25 00:39:32;;;;;;;5.37;4.87;;;23.90;99.90;;;;;;4982335;28;20234;-51
2022/08/25 00:41:59;;;;;;;6.50;5.23;;;23.80;99.90;;;;;;4982865;28;20427;-52
2022/08/25 00:44:31;;;;;;;5.23;4.60;;;23.80;99.90;;;;;;4992400;28;20222;-52
2022/08/25 00:46:59;;;;;;;5.70;5.20;;;23.90;99.90;;;;;;4993599;28;20298;-52
2022/08/25 00:49:34;;;;;;;5.23;4.80;;;23.90;99.90;;;;;;4985221;28;20210;-52
2022/08/25 00:52:19;;;;;;;5.50;5.00;;;23.80;99.90;;;;;;4983201;28;20209;-51
2022/08/25 00:54:53;;;;;;;5.67;5.17;;;23.70;99.90;;;;;;4987688;28;20240;-51
2022/08/25 00:57:27;;;;;;;5.60;4.97;;;23.70;99.90;;;;;;4988600;28;20303;-52
2022/08/25 01:00:04;;;;;;;5.70;5.20;;;23.60;99.90;;;;;;4986546;28;20240;-51
2022/08/25 01:02:31;;;;;;;5.60;5.07;;;23.60;99.90;;;;;;4984767;28;20274;-52
2022/08/25 01:04:58;;;;;;;6.77;5.63;;;23.60;99.90;;;;;;4989459;28;20288;-52
2022/08/25 01:07:25;;;;;;;5.90;5.40;;;23.60;99.90;;;;;;4986595;28;20282;-53
2022/08/25 01:09:52;;;;;;;6.03;5.37;;;23.70;99.90;;;;;;4986525;28;20206;-52
2022/08/25 01:12:20;;;;;;;7.17;6.47;;;23.70;99.90;;;;;;4984942;28;20202;-53
2022/08/25 01:14:49;;;;;;;7.33;5.77;;;23.60;99.90;;;;;;4985104;28;20202;-51
2022/08/25 01:17:15;;;;;;;7.17;6.47;;;23.60;99.90;;;;;;4987615;28;20202;-52
2022/08/25 01:19:43;;;;;;;6.27;5.53;;;23.50;99.90;;;;;;4986955;28;20293;-52
2022/08/25 01:22:10;;;;;;;7.23;5.67;;;23.50;99.90;;;;;;4990789;28;20214;-50
2022/08/25 01:24:49;;;;;;;7.17;6.27;;;23.60;99.90;;;;;;4987861;28;20220;-51
2022/08/25 01:27:16;;;;;;;7.27;5.90;;;23.50;99.90;;;;;;4989555;28;20240;-51
2022/08/25 01:29:43;;;;;;;6.50;5.90;;;23.50;99.90;;;;;;4982653;28;20733;-52
2022/08/25 01:32:13;;;;;;;9.73;6.27;;;23.50;99.90;;;;;;4988789;28;20286;-51
2022/08/25 01:34:43;;;;;;;6.53;5.83;;;23.50;99.90;;;;;;4991837;28;20213;-53
2022/08/25 01:37:12;;;;;;;10.20;5.20;;;23.50;99.90;;;;;;4989583;28;20201;-51
2022/08/25 01:39:41;;;;;;;9.67;6.30;;;23.50;99.90;;;;;;4987109;28;20285;-51
2022/08/25 01:42:16;;;;;;;6.97;6.37;;;23.50;99.90;;;;;;4986903;28;20288;-49
2022/08/25 01:44:45;;;;;;;7.43;6.03;;;23.40;99.90;;;;;;4991589;28;20200;-53
2022/08/25 01:47:13;;;;;;;6.97;5.83;;;23.40;99.90;;;;;;4987727;28;20233;-50
2022/08/25 01:49:40;;;;;;;7.47;6.37;;;23.40;99.90;;;;;;4987475;28;20293;-52
2022/08/25 01:52:35;;;;;;;7.80;6.00;;;23.40;99.90;;;;;;5022089;28;20286;-52
2022/08/25 01:55:03;;;;;;;6.53;6.00;;;23.40;99.90;;;;;;4989705;28;20256;-51
2022/08/25 01:57:30;;;;;;;8.97;6.13;;;23.40;99.90;;;;;;4990984;28;20203;-52
2022/08/25 01:59:57;;;;;;;7.00;6.07;;;23.40;99.90;;;;;;4989263;28;20305;-52
2022/08/25 02:02:24;;;;;;;9.47;5.93;;;23.30;99.90;;;;;;4988103;28;20679;-53
2022/08/25 02:04:52;;;;;;;6.80;6.10;;;23.30;99.90;;;;;;4993295;28;20282;-52
2022/08/25 02:07:19;;;;;;;7.60;6.80;;;23.30;99.90;;;;;;4988653;28;20726;-51
2022/08/25 02:09:46;;;;;;;6.80;6.20;;;23.20;99.90;;;;;;4986955;28;20209;-52
2022/08/25 02:12:14;;;;;;;8.80;5.67;;;23.20;99.90;;;;;;4990377;28;20205;-51
2022/08/25 02:14:41;;;;;;;6.80;5.97;;;23.20;99.90;;;;;;4989268;28;20302;-51
2022/08/25 02:17:08;;;;;;;7.10;6.40;;;23.20;99.90;;;;;;4985315;28;20213;-51
2022/08/25 02:19:35;;;;;;;7.70;7.00;;;23.20;99.90;;;;;;4987777;28;20199;-52
2022/08/25 02:22:03;;;;;;;7.47;6.77;;;23.10;99.90;;;;;;4988588;28;20299;-51
2022/08/25 02:24:29;;;;;;;7.50;6.90;;;23.20;99.90;;;;;;4990798;28;20304;-52
2022/08/25 02:26:57;;;;;;;11.00;7.23;;;23.10;99.90;;;;;;4989218;28;20232;-51
2022/08/25 02:29:23;;;;;;;9.57;6.60;;;23.10;99.90;;;;;;4986865;28;20328;-51
2022/08/25 02:31:50;;;;;;;7.90;7.10;;;23.10;99.90;;;;;;4984557;28;20307;-52
2022/08/25 02:34:17;;;;;;;8.60;7.80;;;23.10;99.90;;;;;;4988958;28;20652;-52
2022/08/25 02:36:44;;;;;;;9.80;7.23;;;23.00;99.90;;;;;;4992843;28;20301;-51
2022/08/25 02:39:11;;;;;;;9.07;7.10;;;23.00;99.90;;;;;;4989185;28;20298;-52
2022/08/25 02:41:38;;;;;;;9.10;7.70;;;23.00;99.90;;;;;;4990960;28;20240;-51
2022/08/25 02:44:06;;;;;;;8.80;7.90;;;23.00;99.90;;;;;;4989782;28;20276;-51
2022/08/25 02:46:34;;;;;;;7.97;7.27;;;22.90;99.90;;;;;;4986451;28;20777;-52
2022/08/25 02:49:01;;;;;;;8.47;7.70;;;22.90;99.90;;;;;;4988681;28;20290;-50
2022/08/25 02:51:28;;;;;;;8.13;7.33;;;22.80;99.90;;;;;;4990363;28;20732;-51
2022/08/25 02:53:58;;;;;;;14.93;8.40;;;22.80;99.90;;;;;;4989449;28;20617;-52
2022/08/25 02:56:25;;;;;;;9.53;7.40;;;22.70;99.90;;;;;;4991425;28;20641;-51
2022/08/25 02:58:52;;;;;;;10.30;8.27;;;22.70;99.90;;;;;;4989625;28;20232;-52
2022/08/25 03:01:19;;;;;;;8.93;8.03;;;22.70;99.90;;;;;;4986404;28;20286;-52
2022/08/25 03:03:51;;;;;;;10.17;7.60;;;22.70;99.90;;;;;;4987440;28;20216;-50
2022/08/25 03:06:21;;;;;;;8.43;7.63;;;22.60;99.90;;;;;;4993973;28;20647;-50
2022/08/25 03:08:48;;;;;;;8.17;7.47;;;22.70;99.90;;;;;;4994494;28;20531;-51
2022/08/25 03:11:16;;;;;;;9.27;7.80;;;22.70;99.90;;;;;;4988365;28;20610;-50
2022/08/25 03:13:43;;;;;;;10.13;7.70;;;22.60;99.90;;;;;;4985379;28;20710;-52
2022/08/25 03:16:10;;;;;;;12.20;7.70;;;22.60;99.90;;;;;;4987474;28;20675;-52
2022/08/25 03:18:41;;;;;;;8.53;7.73;;;22.60;99.90;;;;;;4990368;28;20612;-51
2022/08/25 03:21:10;;;;;;;8.80;7.90;;;22.60;99.90;;;;;;4992707;28;20297;-52
2022/08/25 03:23:38;;;;;;;9.70;8.30;;;22.50;99.90;;;;;;4989223;28;20316;-51
2022/08/25 03:28:54;;;;;;;9.03;8.10;;;22.50;99.90;;;;;;4988460;28;20636;-50
2022/08/25 03:31:22;;;;;;;10.10;8.23;;;22.50;99.90;;;;;;4994441;28;20205;-51
2022/08/25 03:33:49;;;;;;;9.10;8.17;;;22.50;99.90;;;;;;4989649;28;20237;-51
2022/08/25 03:36:16;;;;;;;10.10;8.07;;;22.50;99.90;;;;;;4990888;28;20618;-51
2022/08/25 03:38:43;;;;;;;8.97;8.00;;;22.50;99.90;;;;;;4991817;28;21719;-52
2022/08/25 03:41:15;;;;;;;9.43;8.00;;;22.50;99.90;;;;;;4985438;28;20584;-51
2022/08/25 03:43:43;;;;;;;8.53;7.57;;;22.40;99.90;;;;;;4988125;28;20218;-51
2022/08/25 03:46:19;;;;;;;8.70;7.67;;;22.40;99.90;;;;;;4987117;28;20689;-52
2022/08/25 03:48:47;;;;;;;8.53;7.73;;;22.40;99.90;;;;;;4986148;28;20210;-53
2022/08/25 03:51:24;;;;;;;12.13;7.50;;;22.40;99.90;;;;;;4987617;28;20728;-52
2022/08/25 03:53:51;;;;;;;8.07;7.27;;;22.40;99.90;;;;;;4986791;28;20202;-52
2022/08/25 03:56:18;;;;;;;8.67;7.77;;;22.30;99.90;;;;;;4990234;28;20798;-52
2022/08/25 03:58:46;;;;;;;10.37;8.07;;;22.30;99.90;;;;;;4990148;28;20340;-51
2022/08/25 04:01:14;;;;;;;7.87;7.17;;;22.20;99.90;;;;;;4988722;28;20291;-51
2022/08/25 04:03:44;;;;;;;11.23;8.17;;;22.20;99.90;;;;;;4992443;28;20325;-54
2022/08/25 04:06:11;;;;;;;10.77;8.20;;;22.20;99.90;;;;;;4992006;28;20221;-53
2022/08/25 04:08:38;;;;;;;8.53;7.50;;;22.10;99.90;;;;;;4993950;28;20204;-52
2022/08/25 04:11:18;;;;;;;9.23;7.90;;;22.10;99.90;;;;;;4991910;28;20296;-51
2022/08/25 04:13:46;;;;;;;8.27;7.27;;;22.10;99.90;;;;;;4992806;28;20248;-51
2022/08/25 04:16:20;;;;;;;8.50;7.67;;;22.10;99.90;;;;;;4990235;28;20252;-52
2022/08/25 04:18:48;;;;;;;8.03;7.13;;;22.10;99.90;;;;;;4990450;28;20684;-51
2022/08/25 04:21:16;;;;;;;8.13;7.27;;;22.10;99.90;;;;;;4990060;28;20296;-52
2022/08/25 04:23:44;;;;;;;8.00;7.23;;;22.10;99.90;;;;;;4993663;28;20784;-51
2022/08/25 04:26:14;;;;;;;7.63;6.83;;;22.10;99.90;;;;;;4994226;28;20296;-51
2022/08/25 04:28:41;;;;;;;10.10;7.17;;;22.10;99.90;;;;;;5021185;28;20638;-52
2022/08/25 04:31:10;;;;;;;9.23;7.27;;;22.00;99.90;;;;;;4991789;28;20236;-52
2022/08/25 04:33:37;;;;;;;10.33;6.93;;;21.90;99.90;;;;;;4991078;28;20211;-51
2022/08/25 04:36:06;;;;;;;10.73;6.93;;;22.00;99.90;;;;;;4991215;28;20727;-51
2022/08/25 04:38:39;;;;;;;10.20;7.13;;;22.10;99.90;;;;;;4992081;28;20764;-52
2022/08/25 04:41:08;;;;;;;8.93;6.70;;;22.00;99.90;;;;;;4991792;28;20236;-53
2022/08/25 04:43:36;;;;;;;8.03;6.77;;;21.90;99.90;;;;;;4990075;28;20649;-50
2022/08/25 04:46:10;;;;;;;8.30;7.33;;;21.90;99.90;;;;;;4990813;28;20232;-50
2022/08/25 04:48:38;;;;;;;7.77;6.83;;;21.90;99.90;;;;;;4991579;28;20327;-52
2022/08/25 04:51:07;;;;;;;9.13;6.47;;;22.00;99.90;;;;;;4991686;28;20724;-53
2022/08/25 04:53:35;;;;;;;7.13;6.17;;;21.90;99.90;;;;;;4992514;28;20214;-52
2022/08/25 04:56:07;;;;;;;7.80;6.10;;;21.90;99.90;;;;;;4992251;28;20852;-51
2022/08/25 04:58:34;;;;;;;9.13;5.77;;;21.90;99.90;;;;;;4992698;28;20240;-52
2022/08/25 05:01:14;;;;;;;10.33;6.03;;;21.90;99.90;;;;;;4989289;28;20613;-51
2022/08/25 05:03:42;;;;;;;8.97;6.40;;;21.90;99.90;;;;;;4991031;28;20258;-51
2022/08/25 05:06:09;;;;;;;7.23;5.80;;;21.90;99.90;;;;;;4986531;28;20274;-51
2022/08/25 05:08:41;;;;;;;11.30;5.63;;;21.90;99.90;;;;;;4992861;28;20201;-51
2022/08/25 05:11:13;;;;;;;7.80;5.70;;;21.90;99.90;;;;;;4992314;28;20661;-53
2022/08/25 05:13:42;;;;;;;8.03;5.67;;;21.90;99.90;;;;;;4992124;28;20209;-52
2022/08/25 05:16:12;;;;;;;7.53;5.50;;;22.00;99.90;;;;;;4991323;28;20257;-52
2022/08/25 05:18:39;;;;;;;6.50;5.90;;;22.00;99.90;;;;;;4992026;28;20301;-51
2022/08/25 05:21:12;;;;;;;7.10;6.40;;;21.90;99.90;;;;;;4989560;28;20312;-52
2022/08/25 05:23:40;;;;;;;9.00;5.87;;;21.90;99.90;;;;;;4993010;28;20280;-51
2022/08/25 05:26:10;;;;;;;7.07;5.80;;;21.90;99.90;;;;;;4991355;28;20247;-51
2022/08/25 05:28:41;;;;;;;8.33;5.10;;;21.80;99.90;;;;;;4979383;28;20241;-51
2022/08/25 05:31:11;;;;;;;7.83;5.70;;;21.90;99.90;;;;;;4987892;28;20252;-51
2022/08/25 05:33:39;;;;;;;8.17;5.70;;;22.10;99.90;;;;;;4990976;28;20204;-50
2022/08/25 05:36:08;;;;;;;7.93;5.67;;;22.10;99.90;;;;;;4990650;28;20202;-52
2022/08/25 05:38:36;;;;;;;8.33;5.27;;;22.20;99.90;;;;;;4992230;28;20201;-51
2022/08/25 05:41:06;;;;;;;6.63;5.53;;;22.20;99.90;;;;;;4992427;28;20201;-51
2022/08/25 05:43:34;;;;;;;7.13;5.70;;;22.20;99.90;;;;;;4992818;28;20604;-51
2022/08/25 05:46:00;;;;;;;8.13;5.20;;;22.20;99.90;;;;;;4986472;28;20225;-50
2022/08/25 05:48:27;;;;;;;9.33;5.87;;;22.30;99.90;;;;;;4990490;28;20195;-51
2022/08/25 05:50:57;;;;;;;7.77;5.57;;;22.20;99.90;;;;;;4991878;28;20194;-52
2022/08/25 05:53:25;;;;;;;10.83;6.00;;;22.30;99.90;;;;;;4992006;28;20236;-51
2022/08/25 05:55:53;;;;;;;8.00;5.97;;;22.30;99.90;;;;;;4988701;28;21519;-51
2022/08/25 05:58:22;;;;;;;10.45;5.25;;;22.40;99.90;;;;;;4641946;28;10000107;-53
2022/08/25 06:00:50;;;;;;;7.93;5.70;;;22.40;99.90;;;;;;4976272;28;20215;-52
2022/08/25 06:03:17;;;;;;;10.03;5.30;;;22.50;99.90;;;;;;4987120;28;20275;-52
2022/08/25 06:05:44;;;;;;;9.40;5.87;;;22.40;99.90;;;;;;4987576;28;20231;-51
2022/08/25 06:08:11;;;;;;;10.03;5.90;;;22.50;99.90;;;;;;4991531;28;20298;-51
2022/08/25 06:10:38;;;;;;;5.93;5.20;;;22.50;99.90;;;;;;4988918;28;20227;-51
2022/08/25 06:13:05;;;;;;;8.20;5.57;;;22.50;99.90;;;;;;4984699;28;20215;-52
2022/08/25 06:15:32;;;;;;;11.63;5.80;;;22.60;99.90;;;;;;4987612;28;20551;-54
2022/08/25 06:18:01;;;;;;;6.53;5.10;;;22.60;99.90;;;;;;4991382;28;20297;-54
2022/08/25 06:20:30;;;;;;;6.30;5.70;;;22.70;99.90;;;;;;4992338;28;21063;-52
2022/08/25 06:22:57;;;;;;;6.77;5.87;;;22.50;99.90;;;;;;4992252;28;20205;-52
2022/08/25 06:25:25;;;;;;;8.07;5.63;;;22.70;99.90;;;;;;4988296;28;20730;-52
2022/08/25 06:27:53;;;;;;;6.40;5.70;;;22.80;99.90;;;;;;4981304;28;20198;-53
2022/08/25 06:30:22;;;;;;;8.77;5.83;;;22.70;99.90;;;;;;4980458;28;20221;-52
2022/08/25 06:32:54;;;;;;;8.33;5.50;;;22.80;99.90;;;;;;4987669;28;20202;-52
2022/08/25 06:35:22;;;;;;;7.43;5.67;;;22.80;99.90;;;;;;5016435;28;20324;-52
2022/08/25 06:37:48;;;;;;;12.03;5.23;;;22.90;99.90;;;;;;4989681;28;20237;-51
2022/08/25 06:40:15;;;;;;;5.83;5.20;;;23.00;99.90;;;;;;4987111;28;20301;-52
2022/08/25 06:42:47;;;;;;;7.53;5.30;;;23.00;99.90;;;;;;4988568;28;20760;-52
2022/08/25 06:45:14;;;;;;;7.93;5.40;;;23.10;99.90;;;;;;4984893;28;20235;-51
2022/08/25 06:47:41;;;;;;;6.27;5.60;;;23.10;99.90;;;;;;4989084;28;20241;-51
2022/08/25 06:50:11;;;;;;;8.33;5.83;;;23.20;99.90;;;;;;4984894;28;20205;-51
2022/08/25 06:52:39;;;;;;;8.23;5.90;;;23.30;99.90;;;;;;4985279;28;20238;-52
2022/08/25 06:55:06;;;;;;;5.60;5.03;;;23.50;99.90;;;;;;4985553;28;20311;-52
2022/08/25 06:57:34;;;;;;;8.10;5.73;;;23.50;99.90;;;;;;4981092;28;20764;-53
2022/08/25 07:00:05;;;;;;;6.37;4.87;;;23.70;99.90;;;;;;4982888;28;20645;-52
2022/08/25 07:02:32;;;;;;;8.27;5.07;;;23.90;99.90;;;;;;4984864;28;20229;-51
2022/08/25 07:05:01;;;;;;;9.13;5.43;;;24.10;99.90;;;;;;4983454;28;20213;-52
2022/08/25 07:07:30;;;;;;;8.17;5.20;;;24.30;99.90;;;;;;4971170;28;20731;-53
2022/08/25 07:10:10;;;;;;;7.93;5.33;;;24.40;99.90;;;;;;4971227;28;20206;-53
2022/08/25 07:12:37;;;;;;;6.20;4.63;;;24.50;99.90;;;;;;4991292;28;20275;-52
2022/08/25 07:15:04;;;;;;;7.77;5.27;;;24.50;99.90;;;;;;4990107;28;20734;-52
2022/08/25 07:17:47;;;;;;;6.00;4.70;;;24.60;99.90;;;;;;4982395;28;20299;-53
2022/08/25 07:20:15;;;;;;;7.87;4.50;;;24.80;99.90;;;;;;4981017;28;20299;-52
2022/08/25 07:22:46;;;;;;;6.83;4.63;;;24.90;99.90;;;;;;4981884;28;20208;-53
2022/08/25 07:25:13;;;;;;;6.83;4.70;;;25.10;99.90;;;;;;4987225;28;20220;-52
2022/08/25 07:27:43;;;;;;;8.27;4.57;;;25.10;99.90;;;;;;4987285;28;20222;-52
2022/08/25 07:30:10;;;;;;;8.53;4.70;;;25.30;99.90;;;;;;4984047;28;20264;-53
2022/08/25 07:32:37;;;;;;;5.13;4.37;;;25.30;99.90;;;;;;4984786;28;20539;-53
2022/08/25 07:35:14;;;;;;;7.97;4.67;;;25.40;99.90;;;;;;4992399;28;20213;-52
2022/08/25 07:37:47;;;;;;;5.97;3.93;;;25.40;99.90;;;;;;4992265;28;20205;-52
2022/08/25 07:40:22;;;;;;;6.37;3.57;;;25.70;99.90;;;;;;4987064;28;20559;-53
2022/08/25 07:42:51;;;;;;;6.20;3.47;;;25.80;99.90;;;;;;4990929;28;20235;-53
2022/08/25 07:45:20;;;;;;;6.43;3.80;;;25.70;99.90;;;;;;4990960;28;20335;-53
2022/08/25 07:47:47;;;;;;;5.57;3.70;;;25.80;99.90;;;;;;4989802;28;20237;-52
2022/08/25 07:50:17;;;;;;;3.57;3.27;;;25.70;99.90;;;;;;4992588;28;20213;-52
2022/08/25 07:52:45;;;;;;;6.13;3.40;;;25.70;99.90;;;;;;4990741;28;20745;-52
2022/08/25 07:55:21;;;;;;;9.60;3.70;;;25.80;99.90;;;;;;4988125;28;20232;-53
2022/08/25 07:57:48;;;;;;;5.27;4.03;;;25.80;99.90;;;;;;4989816;28;20217;-52
2022/08/25 08:00:22;;;;;;;5.70;3.70;;;25.70;99.90;;;;;;4976409;28;20726;-53
2022/08/25 08:02:50;;;;;;;5.17;3.23;;;25.70;99.90;;;;;;4992812;28;20801;-52
2022/08/25 08:05:17;;;;;;;5.30;3.53;;;25.80;99.90;;;;;;4990605;28;20217;-52
2022/08/25 08:07:44;;;;;;;3.53;2.90;;;26.00;99.90;;;;;;4991665;28;20290;-53
2022/08/25 08:10:14;;;;;;;6.50;3.50;;;26.20;99.90;;;;;;4990567;28;22064;-51
2022/08/25 08:13:01;;;;;;;7.47;3.13;;;26.20;99.90;;;;;;4988588;28;20243;-53
2022/08/25 08:15:29;;;;;;;3.73;3.03;;;26.40;99.90;;;;;;4990389;28;20848;-53
2022/08/25 08:17:57;;;;;;;6.70;3.27;;;26.40;99.90;;;;;;4991090;28;20224;-54
2022/08/25 08:20:25;;;;;;;4.83;3.80;;;26.40;99.90;;;;;;4985565;28;20268;-53
2022/08/25 08:22:52;;;;;;;4.90;2.80;;;26.60;99.90;;;;;;4989138;28;20316;-53
2022/08/25 08:25:19;;;;;;;4.50;2.93;;;26.80;99.90;;;;;;4993282;28;21572;-54
2022/08/25 08:27:53;;;;;;;8.30;3.57;;;27.00;99.90;;;;;;4990432;28;20668;-53
2022/08/25 08:30:21;;;;;;;3.97;3.27;;;27.00;99.90;;;;;;4985932;28;20229;-53
2022/08/25 08:32:52;;;;;;;5.37;3.03;;;27.00;99.90;;;;;;4983079;28;20201;-54
2022/08/25 08:35:35;;;;;;;3.87;2.90;;;27.30;99.90;;;;;;4986550;28;20214;-53
2022/08/25 08:38:02;;;;;;;4.67;3.07;;;27.60;99.90;;;;;;4990026;28;20844;-53
2022/08/25 08:42:15;;;;;;;5.20;2.90;;;27.80;99.90;;;;;;4980702;28;20294;-52
2022/08/25 08:43:34;;;;;;;5.10;3.27;;;27.70;99.90;;;;;;4988177;28;20669;-54
2022/08/25 08:46:02;;;;;;;7.43;3.07;;;28.00;99.90;;;;;;4985129;28;20792;-53
2022/08/25 08:49:02;;;;;;;4.70;2.83;;;28.20;99.90;;;;;;4985719;28;20234;-53
2022/08/25 08:51:48;;;;;;;5.17;2.70;;;28.30;99.90;;;;;;4990988;28;20228;-53
2022/08/25 08:54:20;;;;;;;6.93;3.42;;;28.80;99.90;;;;;;4982677;28;20234;-53
2022/08/25 08:56:54;;;;;;;6.47;2.88;;;28.80;99.90;;;;;;4984215;28;20730;-54
2022/08/25 08:59:26;;;;;;;7.82;3.15;;;29.00;99.90;;;;;;4984193;28;20721;-54
2022/08/25 09:02:01;;;;;;;7.25;2.75;;;29.10;99.90;;;;;;4986708;28;20207;-54
2022/08/25 09:04:40;;;;;;;4.87;3.00;;;29.50;99.90;;;;;;4989778;28;20484;-56
2022/08/25 09:07:16;;;;;;;5.55;3.13;;;29.50;99.90;;;;;;4983986;28;20492;-56
2022/08/25 09:09:46;;;;;;;5.57;2.72;;;29.80;99.90;;;;;;4981139;28;20209;-56
2022/08/25 09:12:40;;;;;;;6.65;2.70;;;29.60;99.90;;;;;;4990414;28;20288;-55
2022/08/25 09:18:47;;;;;;;3.83;2.50;;;31.00;99.90;;;;;;4980562;28;20206;-55
2022/08/25 09:21:48;;;;;;;4.55;2.72;;;30.40;99.90;;;;;;4980792;28;20206;-54
2022/08/25 09:24:42;;;;;;;5.30;3.70;;;31.00;99.90;;;;;;4982689;28;20241;-57
2022/08/25 09:27:32;;;;;;;3.85;2.45;;;30.80;99.90;;;;;;4979872;28;20202;-56
2022/08/25 09:30:03;;;;;;;4.63;2.65;;;31.30;99.90;;;;;;4974395;28;20926;-56
2022/08/25 09:32:37;;;;;;;4.07;2.55;;;31.60;99.90;;;;;;4981166;28;20681;-54
2022/08/25 09:35:13;;;;;;;4.03;2.40;;;31.90;99.90;;;;;;4984870;28;20213;-66
2022/08/25 09:37:40;;;;;;;3.55;2.50;;;31.60;99.90;;;;;;4990995;28;20296;-63
2022/08/25 09:40:08;;;;;;;2.67;2.17;;;31.40;99.90;;;;;;4988960;28;20724;-55
2022/08/25 09:42:56;;;;;;;3.55;2.00;;;30.90;99.90;;;;;;4991376;28;20206;-58
2022/08/25 09:46:01;;;;;;;4.20;2.55;;;30.70;99.90;;;;;;4987059;28;20287;-56
2022/08/25 09:48:41;;;;;;;6.18;2.55;;;31.20;99.90;;;;;;4959773;28;20240;-56
2022/08/25 09:51:38;;;;;;;4.07;2.40;;;31.40;99.90;;;;;;4977388;28;20210;-56
2022/08/25 09:54:11;;;;;;;3.03;2.72;;;31.50;99.90;;;;;;4978737;28;20232;-56
2022/08/25 09:56:51;;;;;;;2.67;1.88;;;31.70;99.90;;;;;;4976185;28;20233;-55
2022/08/25 09:59:25;;;;;;;2.35;1.70;;;31.70;99.90;;;;;;4979555;28;20756;-55
2022/08/25 10:02:19;;;;;;;2.78;2.20;;;31.80;99.90;;;;;;4984547;28;20201;-55
2022/08/25 10:04:46;;;;;;;3.58;2.30;;;31.70;99.90;;;;;;4982094;28;20207;-55
2022/08/25 10:07:24;;;;;;;2.30;2.10;;;31.40;99.90;;;;;;4984100;28;20603;-56
2022/08/25 10:09:58;;;;;;;5.35;2.28;;;31.20;99.90;;;;;;4985331;28;20222;-56
2022/08/25 10:12:34;;;;;;;5.32;2.30;;;31.10;99.90;;;;;;4982161;28;20225;-55
2022/08/25 10:15:24;;;;;;;4.97;2.15;;;30.80;99.90;;;;;;4981174;28;20213;-55
2022/08/25 10:18:16;;;;;;;6.10;2.13;;;30.80;99.90;;;;;;4982914;28;20197;-55
2022/08/25 10:20:43;;;;;;;2.85;2.40;;;30.90;99.90;;;;;;4982867;28;20230;-55
2022/08/25 10:23:13;;;;;;;3.53;2.22;;;30.90;99.90;;;;;;4982891;28;20198;-55
2022/08/25 10:25:45;;;;;;;3.55;2.03;;;30.90;99.90;;;;;;4983056;28;20214;-55
2022/08/25 10:28:36;;;;;;;5.10;2.10;;;30.90;99.90;;;;;;4980854;28;20198;-55
2022/08/25 10:31:09;;;;;;;3.22;2.30;;;30.80;99.90;;;;;;4980480;28;20707;-55
2022/08/25 10:34:04;;;;;;;3.97;2.03;;;31.00;99.90;;;;;;4978110;28;20646;-55
2022/08/25 10:36:31;;;;;;;2.10;1.90;;;31.10;99.90;;;;;;4984810;28;20209;-57
2022/08/25 10:39:00;;;;;;;3.50;2.00;;;31.20;99.90;;;;;;4984150;28;20297;-56
2022/08/25 10:41:33;;;;;;;6.10;2.55;;;31.40;99.90;;;;;;4980790;28;20193;-55
2022/08/25 10:44:05;;;;;;;3.13;2.08;;;31.20;99.90;;;;;;4978776;28;20210;-55
2022/08/25 10:46:55;;;;;;;2.72;2.22;;;31.10;99.90;;;;;;4980681;28;20364;-57
2022/08/25 10:49:44;;;;;;;4.80;1.83;;;31.00;99.90;;;;;;4988207;28;20348;-57
2022/08/25 10:52:20;;;;;;;2.03;1.70;;;31.00;99.90;;;;;;4985309;28;20590;-56
2022/08/25 10:54:58;;;;;;;2.80;1.80;;;31.00;99.90;;;;;;4973876;28;20656;-56
2022/08/25 10:57:30;;;;;;;3.25;1.73;;;31.00;99.90;;;;;;4973070;28;20198;-55
2022/08/25 11:00:13;;;;;;;3.15;1.70;;;31.00;99.90;;;;;;4973654;28;20217;-55
2022/08/25 11:03:12;;;;;;;2.72;1.80;;;30.90;99.90;;;;;;4973886;28;20225;-57
2022/08/25 11:05:42;;;;;;;2.53;2.03;;;30.90;99.90;;;;;;4976928;28;20651;-55
2022/08/25 11:08:17;;;;;;;2.90;1.75;;;30.80;99.90;;;;;;4975557;28;20193;-55
2022/08/25 11:10:55;;;;;;;2.97;2.00;;;30.90;99.90;;;;;;4979104;28;20205;-55
2022/08/25 11:13:32;;;;;;;3.33;1.83;;;30.90;99.90;;;;;;4977691;28;20686;-55
2022/08/25 11:16:10;;;;;;;2.13;1.90;;;30.90;99.90;;;;;;4974592;28;20221;-57
2022/08/25 11:19:07;;;;;;;4.53;1.70;;;30.90;99.90;;;;;;4980372;28;20204;-56
2022/08/25 11:22:03;;;;;;;2.47;1.70;;;31.30;99.90;;;;;;4984434;28;20808;-56
2022/08/25 11:24:47;;;;;;;4.93;2.20;;;32.20;99.90;;;;;;4947181;28;20218;-56
2022/08/25 11:27:21;;;;;;;9.93;1.77;;;32.70;99.90;;;;;;4979814;28;20283;-56
2022/08/25 11:30:07;;;;;;;4.65;2.15;;;32.70;99.90;;;;;;4975761;28;20209;-56
2022/08/25 11:32:37;;;;;;;4.88;1.83;;;32.70;99.90;;;;;;4972441;28;20198;-56
2022/08/25 11:35:11;;;;;;;2.33;1.60;;;33.30;99.90;;;;;;4979029;28;20645;-56
2022/08/25 11:38:03;;;;;;;4.72;2.28;;;33.80;99.90;;;;;;4975543;28;20293;-57
2022/08/25 11:40:48;;;;;;;3.75;1.88;;;33.90;99.90;;;;;;4978092;28;20195;-56
2022/08/25 11:43:26;;;;;;;2.05;1.83;;;34.30;99.90;;;;;;4977023;28;20209;-56
2022/08/25 11:46:18;;;;;;;2.05;1.55;;;34.40;99.90;;;;;;4973368;28;20403;-56
2022/08/25 11:49:20;;;;;;;2.15;1.50;;;34.10;99.90;;;;;;4977236;28;20213;-58
2022/08/25 11:51:49;;;;;;;3.30;1.33;;;34.60;99.90;;;;;;4974413;28;20280;-54
2022/08/25 11:54:34;;;;;;;4.50;1.75;;;34.60;99.90;;;;;;4982226;28;20291;-57
2022/08/25 11:57:05;;;;;;;1.58;1.48;;;35.20;99.90;;;;;;4977920;28;20280;-57
2022/08/25 11:59:51;;;;;;;7.63;2.00;;;34.40;99.90;;;;;;4974623;28;20262;-57
2022/08/25 12:02:35;;;;;;;2.50;1.85;;;34.40;99.90;;;;;;4974467;28;20327;-57
2022/08/25 12:05:04;;;;;;;5.40;1.88;;;35.00;99.90;;;;;;4978610;28;20209;-56
2022/08/25 12:08:37;;;;;;;3.28;1.90;;;34.70;99.90;;;;;;4981642;28;20199;-58
2022/08/25 12:11:01;;;;;;;2.40;1.90;;;34.40;99.90;;;;;;4977642;28;20210;-57
2022/08/25 12:13:46;;;;;;;4.75;2.13;;;34.40;99.90;;;;;;4977472;28;20649;-57
2022/08/25 12:16:30;;;;;;;3.05;2.15;;;34.00;99.90;;;;;;4979687;28;20202;-56
2022/08/25 12:19:26;;;;;;;4.00;2.47;;;34.20;99.90;;;;;;4987924;28;20220;-57
2022/08/25 12:22:00;;;;;;;2.15;1.95;;;34.90;99.90;;;;;;4977374;28;20915;-56
2022/08/25 12:24:41;;;;;;;4.03;2.33;;;34.80;99.90;;;;;;4978032;28;20201;-56
2022/08/25 12:27:45;;;;;;;3.50;2.03;;;34.70;99.90;;;;;;4978431;28;20222;-56
2022/08/25 12:30:24;;;;;;;2.80;1.80;;;35.80;99.90;;;;;;4976565;28;20725;-58
2022/08/25 12:33:09;;;;;;;3.15;2.10;;;35.90;99.90;;;;;;4974829;28;20276;-57
2022/08/25 12:35:47;;;;;;;8.40;2.78;;;37.10;99.90;;;;;;4977130;28;20657;-56
2022/08/25 12:38:17;;;;;;;1.77;1.42;;;37.40;99.90;;;;;;4986634;28;20209;-57
2022/08/25 12:40:44;;;;;;;3.42;2.17;;;37.10;99.90;;;;;;4975607;28;20632;-56
2022/08/25 12:43:34;;;;;;;3.83;1.92;;;36.20;99.90;;;;;;4974217;28;20212;-56
2022/08/25 12:46:21;;;;;;;3.40;1.98;;;37.00;99.90;;;;;;4969173;28;20568;-56
2022/08/25 12:48:59;;;;;;;3.53;1.70;;;36.50;99.90;;;;;;4970235;28;20210;-56
2022/08/25 12:51:44;;;;;;;4.75;2.05;;;35.50;99.90;;;;;;4973753;28;20206;-55
2022/08/25 12:54:23;;;;;;;3.42;1.98;;;35.60;99.90;;;;;;4976270;28;20229;-55
2022/08/25 12:57:00;;;;;;;2.40;1.77;;;36.00;99.90;;;;;;4974167;28;20210;-56
2022/08/25 12:59:40;;;;;;;6.63;1.80;;;36.40;99.90;;;;;;4983231;28;20206;-55
2022/08/25 13:02:59;;;;;;;2.08;1.63;;;35.20;99.90;;;;;;4978326;28;20228;-55
2022/08/25 13:05:45;;;;;;;3.85;2.00;;;35.40;99.90;;;;;;4972822;28;20201;-55
2022/08/25 13:08:20;;;;;;;3.55;1.73;;;36.10;99.90;;;;;;4987693;28;20280;-57
2022/08/25 13:11:15;;;;;;;2.33;1.95;;;35.30;99.90;;;;;;4980439;28;20197;-55
2022/08/25 13:14:07;;;;;;;3.25;1.83;;;36.30;99.90;;;;;;4977678;28;20210;-55
2022/08/25 13:16:35;;;;;;;3.10;1.88;;;37.20;99.90;;;;;;4983269;28;20760;-55
2022/08/25 13:19:05;;;;;;;2.38;1.98;;;36.00;99.90;;;;;;4987675;28;20509;-55
2022/08/25 13:21:36;;;;;;;4.55;2.33;;;36.40;99.90;;;;;;4987475;28;20205;-55